Echelon, New Jersey
Current Conditions -  °F | °C
As of 10:54 AM on Thursday 18 Dec 2014 (Local Time) from KVAY Reporting Station
Overcast Overcast  
Wind Chill: 31°   Ceiling: 3900
Heat Index: 38°   Visibility: 10mi
Dew Point: 22°   Wind: 10mph
Humidity: 53%   Direction: 300°WNW
Pressure: 30.07"   Gusts: 20mph
Location:  39.8445°N, 74.9532°W
Report Text: KVAY 181554Z AUTO 30009G17KT 250V320 10SM OVC039 03/M06 A3007 RMK AO2 SLP183 T00331056
Loading
Personal Weather Stations






























Interactive Weather Map New forecast layout! Learn more

10-Day Weather Forecast

Advertisements
Track Severe Weather on mobile